CEA3 weather

Olds-Didsbury Airport
Olds-Didsbury, Alberta, Canada

Public forecast

Using degrees Celsius for public forecast. Weather courtesy of forecast.io.

Closest aviation weather report (METAR) to Olds-Didsbury Airport

Closest report is Red Deer Regional Airport, 29.3 nm (54.3 km) NNE. Retrieved 2019/12/06 05:00 UTC (26 minutes ago):

CYQF 060500Z 00000KT 15SM FEW140 M19/M21 A3002 RMK AC2 WND ESTD SLP246

Closest aviation forecast (TAF) to Olds-Didsbury Airport

Closest forecast is Red Deer Regional Airport, 29.3 nm (54.3 km) NNE. Retrieved 2019-12-06 00:42 UTC (5 hours ago):

TAF CYQF 052338Z 0600/0612 VRB03KT P6SM BKN250 PROB30 0607/0612 1/2SM FZFG RMK NXT FCST BY 060600Z